TimeEDT,TemperatureF,Dew PointF,Humidity,Sea Level PressureIn,VisibilityMPH,Wind Direction,Wind SpeedMPH,Gust SpeedMPH,PrecipitationIn,Events,Conditions,WindDirDegrees,DateUTC
12:51 AM,54.0,42.1,64,30.12,-9999.0,North,4.6,-,N/A,,Unknown,10,2013-09-14 04:51:00
1:51 AM,54.0,42.1,64,30.11,-9999.0,Calm,Calm,-,N/A,,Unknown,0,2013-09-14 05:51:00
2:51 AM,46.0,39.9,79,30.12,-9999.0,WSW,6.9,-,N/A,,Unknown,250,2013-09-14 06:51:00
3:51 AM,45.0,39.0,80,30.13,-9999.0,WSW,9.2,-,N/A,,Unknown,240,2013-09-14 07:51:00
4:51 AM,45.0,39.9,82,30.12,-9999.0,WSW,8.1,-,N/A,,Unknown,240,2013-09-14 08:51:00
5:51 AM,44.1,39.9,85,30.13,-9999.0,WSW,8.1,-,N/A,,Unknown,240,2013-09-14 09:51:00
6:51 AM,44.1,39.9,85,30.13,-9999.0,WSW,8.1,-,N/A,,Unknown,240,2013-09-14 10:51:00
7:51 AM,45.0,41.0,86,30.15,-9999.0,WSW,8.1,-,N/A,,Unknown,240,2013-09-14 11:51:00
8:51 AM,51.1,43.0,74,30.15,-9999.0,WSW,4.6,-,N/A,,Unknown,240,2013-09-14 12:51:00
9:51 AM,57.0,45.0,64,30.15,-9999.0,Variable,6.9,-,N/A,,Unknown,0,2013-09-14 13:51:00
10:51 AM,59.0,43.0,55,30.16,-9999.0,Variable,5.8,-,N/A,,Unknown,0,2013-09-14 14:51:00
11:51 AM,60.1,41.0,49,30.14,-9999.0,Variable,5.8,-,N/A,,Unknown,0,2013-09-14 15:51:00
12:51 PM,62.1,42.1,48,30.13,-9999.0,WNW,8.1,-,N/A,,Unknown,300,2013-09-14 16:51:00
1:51 PM,64.0,39.0,40,30.12,-9999.0,Variable,5.8,-,N/A,,Unknown,0,2013-09-14 17:51:00
2:51 PM,64.0,35.1,34,30.10,-9999.0,West,8.1,-,N/A,,Unknown,260,2013-09-14 18:51:00
3:51 PM,66.0,34.0,30,30.08,-9999.0,Variable,3.5,-,N/A,,Unknown,0,2013-09-14 19:51:00
4:51 PM,66.9,35.1,31,30.07,-9999.0,Calm,Calm,-,N/A,,Unknown,0,2013-09-14 20:51:00
5:51 PM,66.9,39.0,36,30.06,-9999.0,Variable,4.6,-,N/A,,Unknown,0,2013-09-14 21:51:00
6:51 PM,64.0,41.0,43,30.06,-9999.0,Calm,Calm,-,N/A,,Unknown,0,2013-09-14 22:51:00
7:51 PM,57.0,43.0,59,30.06,-9999.0,Calm,Calm,-,N/A,,Unknown,0,2013-09-14 23:51:00
8:51 PM,54.0,45.0,72,30.07,-9999.0,Calm,Calm,-,N/A,,Unknown,0,2013-09-15 00:51:00
9:51 PM,57.0,41.0,55,30.05,-9999.0,Calm,Calm,-,N/A,,Unknown,0,2013-09-15 01:51:00
10:51 PM,55.9,41.0,57,30.05,-9999.0,SW,3.5,-,N/A,,Unknown,220,2013-09-15 02:51:00
11:51 PM,55.0,42.1,62,30.04,-9999.0,SSW,3.5,-,N/A,,Unknown,210,2013-09-15 03:51:00